createdAt,value
2023-03-11T00:00:47.313Z,97579.41
2023-03-11T00:03:25.852Z,97568.41
2023-03-11T00:05:54.348Z,97571.56
2023-03-11T00:08:24.484Z,97581.38
2023-03-11T00:10:58.759Z,97565.75
2023-03-11T00:13:27.964Z,97575.47
2023-03-11T00:15:56.674Z,97573.22
2023-03-11T00:18:28.180Z,97579.03
2023-03-11T00:20:56.984Z,97576.25
2023-03-11T00:23:25.532Z,97570.44
2023-03-11T00:25:53.357Z,97571.88
2023-03-11T00:28:22.448Z,97568.00
2023-03-11T00:30:50.011Z,97560.44
2023-03-11T00:33:17.377Z,97557.88
2023-03-11T00:35:45.286Z,97573.31
2023-03-11T00:38:15.374Z,97563.63
2023-03-11T00:40:45.812Z,97559.25
2023-03-11T00:43:13.860Z,97552.34
2023-03-11T00:45:42.142Z,97559.41
2023-03-11T00:48:09.632Z,97546.59
2023-03-11T00:50:37.734Z,97539.44
2023-03-11T00:53:06.585Z,97555.03
2023-03-11T00:55:35.679Z,97558.59
2023-03-11T00:58:07.219Z,97549.09
2023-03-11T01:00:44.628Z,97550.69
2023-03-11T01:03:12.096Z,97556.72
2023-03-11T01:05:39.827Z,97552.53
2023-03-11T01:08:07.100Z,97550.38
2023-03-11T01:10:35.540Z,97555.16
2023-03-11T01:13:03.532Z,97550.38
2023-03-11T01:15:34.211Z,97545.47
2023-03-11T01:18:02.151Z,97552.09
2023-03-11T01:20:29.889Z,97547.75
2023-03-11T01:22:57.372Z,97559.00
2023-03-11T01:25:25.165Z,97552.28
2023-03-11T01:27:52.524Z,97548.47
2023-03-11T01:30:22.935Z,97550.38
2023-03-11T01:32:51.911Z,97545.59
2023-03-11T01:35:22.722Z,97533.59
2023-03-11T01:37:50.109Z,97545.78
2023-03-11T01:40:24.461Z,97545.13
2023-03-11T01:42:51.955Z,97542.31
2023-03-11T01:45:29.156Z,97551.09
2023-03-11T01:47:56.765Z,97538.25
2023-03-11T01:50:27.511Z,97542.59
2023-03-11T01:52:54.812Z,97542.31
2023-03-11T01:55:22.553Z,97538.66
2023-03-11T01:57:51.735Z,97529.44
2023-03-11T02:00:19.758Z,97540.25
2023-03-11T02:02:54.322Z,97540.00
2023-03-11T02:05:24.409Z,97532.28
2023-03-11T02:07:55.167Z,97532.25
2023-03-11T02:10:26.566Z,97534.63
2023-03-11T02:12:54.940Z,97536.13
2023-03-11T02:15:28.828Z,97535.00
2023-03-11T02:17:59.516Z,97538.00
2023-03-11T02:20:47.061Z,97542.56
2023-03-11T02:23:16.070Z,97544.94
2023-03-11T02:26:03.293Z,97540.31
2023-03-11T02:28:33.026Z,97546.94
2023-03-11T02:31:01.363Z,97550.41
2023-03-11T02:33:32.517Z,97538.84
2023-03-11T02:36:00.313Z,97531.47
2023-03-11T02:38:27.605Z,97531.88
2023-03-11T02:40:58.640Z,97544.00
2023-03-11T02:43:37.353Z,97547.59
2023-03-11T02:46:06.624Z,97540.88
2023-03-11T02:48:35.244Z,97545.94
2023-03-11T02:51:03.333Z,97543.72
2023-03-11T02:53:35.807Z,97540.34
2023-03-11T02:56:03.764Z,97542.59
2023-03-11T02:58:31.280Z,97561.78
2023-03-11T03:00:58.876Z,97557.63
2023-03-11T03:03:26.220Z,97563.25
2023-03-11T03:05:53.797Z,97574.22
2023-03-11T03:08:21.095Z,97561.78
2023-03-11T03:10:48.935Z,97561.66
2023-03-11T03:13:16.294Z,97570.78
2023-03-11T03:15:43.878Z,97560.38
2023-03-11T03:18:11.245Z,97575.56
2023-03-11T03:20:38.823Z,97574.75
2023-03-11T03:23:06.030Z,97572.97
2023-03-11T03:25:34.133Z,97577.84
2023-03-11T03:28:05.249Z,97584.72
2023-03-11T03:30:36.039Z,97572.69
2023-03-11T03:33:04.087Z,97578.50
2023-03-11T03:35:32.968Z,97586.78
2023-03-11T03:38:08.173Z,97591.50
2023-03-11T03:40:35.865Z,97582.06
2023-03-11T03:43:06.230Z,97588.34
2023-03-11T03:45:35.774Z,97582.75
2023-03-11T03:48:03.023Z,97570.56
2023-03-11T03:50:35.140Z,97584.72
2023-03-11T03:53:02.779Z,97592.91
2023-03-11T03:55:30.394Z,97579.44
2023-03-11T03:57:58.590Z,97586.22
2023-03-11T04:00:30.375Z,97592.13
2023-03-11T04:03:01.530Z,97587.25
2023-03-11T04:05:45.008Z,97577.53
2023-03-11T04:08:14.034Z,97592.81
2023-03-11T04:10:41.750Z,97601.94
2023-03-11T04:13:09.258Z,97598.75
2023-03-11T04:15:40.417Z,97602.81
2023-03-11T04:18:08.022Z,97606.72
2023-03-11T04:20:35.698Z,97598.03
2023-03-11T04:23:02.987Z,97595.00
2023-03-11T04:25:30.636Z,97603.66
2023-03-11T04:27:58.544Z,97592.91
2023-03-11T04:30:26.768Z,97610.50
2023-03-11T04:32:56.970Z,97624.13
2023-03-11T04:35:25.518Z,97612.00
2023-03-11T04:37:53.466Z,97606.31
2023-03-11T04:40:21.435Z,97614.06
2023-03-11T04:42:49.084Z,97627.50
2023-03-11T04:45:18.562Z,97619.38
2023-03-11T04:47:51.348Z,97615.13
2023-03-11T04:50:20.006Z,97629.88
2023-03-11T04:52:48.040Z,97631.44
2023-03-11T04:55:16.276Z,97633.72
2023-03-11T04:57:44.138Z,97638.81
2023-03-11T05:00:16.232Z,97631.59
2023-03-11T05:02:47.976Z,97622.59
2023-03-11T05:05:16.636Z,97644.91
2023-03-11T05:07:44.510Z,97645.44
2023-03-11T05:10:14.631Z,97650.75
2023-03-11T05:12:41.875Z,97659.38
2023-03-11T05:15:09.768Z,97662.09
2023-03-11T05:17:37.853Z,97661.56
2023-03-11T05:20:09.203Z,97660.28
2023-03-11T05:22:37.189Z,97654.72
2023-03-11T05:25:06.252Z,97654.69
2023-03-11T05:27:33.838Z,97657.88
2023-03-11T05:30:01.410Z,97663.75
2023-03-11T05:32:31.904Z,97657.88
2023-03-11T05:34:59.962Z,97673.44
2023-03-11T05:37:28.211Z,97667.31
2023-03-11T05:39:57.045Z,97675.56
2023-03-11T05:42:24.338Z,97681.34
2023-03-11T05:44:54.569Z,97692.50
2023-03-11T05:47:23.450Z,97686.31
2023-03-11T05:49:51.468Z,97697.47
2023-03-11T05:52:20.237Z,97701.16
2023-03-11T05:54:52.275Z,97709.41
2023-03-11T05:57:23.341Z,97710.69
2023-03-11T05:59:51.675Z,97710.38
2023-03-11T06:02:20.929Z,97720.06
2023-03-11T06:04:48.798Z,97742.63
2023-03-11T06:07:16.432Z,97749.56
2023-03-11T06:09:46.913Z,97731.69
2023-03-11T06:12:18.076Z,97753.25
2023-03-11T06:14:54.378Z,97760.13
2023-03-11T06:17:21.969Z,97764.00
2023-03-11T06:19:49.660Z,97764.22
2023-03-11T06:22:17.142Z,97775.38
2023-03-11T06:24:44.871Z,97767.72
2023-03-11T06:27:12.560Z,97779.34
2023-03-11T06:29:41.942Z,97782.09
2023-03-11T06:32:10.246Z,97796.28
2023-03-11T06:34:37.886Z,97787.00
2023-03-11T06:37:06.359Z,97782.88
2023-03-11T06:39:34.058Z,97789.13
2023-03-11T06:42:01.583Z,97796.31
2023-03-11T06:44:30.373Z,97793.81
2023-03-11T06:46:57.644Z,97796.78
2023-03-11T06:49:25.289Z,97807.22
2023-03-11T06:51:52.847Z,97808.16
2023-03-11T06:54:20.408Z,97818.34
2023-03-11T06:56:47.808Z,97820.47
2023-03-11T06:59:15.764Z,97832.97
2023-03-11T07:01:43.125Z,97831.19
2023-03-11T07:04:10.970Z,97825.50
2023-03-11T07:06:42.229Z,97837.78
2023-03-11T07:09:14.999Z,97836.34
2023-03-11T07:11:44.906Z,97851.28
2023-03-11T07:14:16.614Z,97855.56
2023-03-11T07:16:47.990Z,97851.00
2023-03-11T07:19:38.434Z,97867.97
2023-03-11T07:22:05.756Z,97868.16
2023-03-11T07:24:33.363Z,97877.50
2023-03-11T07:27:00.625Z,97876.50
2023-03-11T07:29:28.169Z,97883.25
2023-03-11T07:31:55.484Z,97883.41
2023-03-11T07:34:23.148Z,97903.25
2023-03-11T07:36:50.442Z,97912.13
2023-03-11T07:39:19.007Z,97915.06
2023-03-11T07:41:47.211Z,97914.53
2023-03-11T07:44:16.967Z,97924.72
2023-03-11T07:46:45.288Z,97925.00
2023-03-11T07:49:13.968Z,97923.41
2023-03-11T07:51:43.771Z,97918.16
2023-03-11T07:54:12.533Z,97933.53
2023-03-11T07:56:39.891Z,97935.13
2023-03-11T07:59:08.074Z,97944.88
2023-03-11T08:01:41.147Z,97934.50
2023-03-11T08:04:14.500Z,97942.69
2023-03-11T08:06:43.946Z,97942.78
2023-03-11T08:09:12.888Z,97959.13
2023-03-11T08:11:40.507Z,97966.63
2023-03-11T08:14:08.209Z,97963.22
2023-03-11T08:16:35.479Z,97971.81
2023-03-11T08:19:03.394Z,97974.06
2023-03-11T08:21:32.434Z,97993.78
2023-03-11T08:24:02.382Z,97993.88
2023-03-11T08:26:30.989Z,97999.09
2023-03-11T08:28:59.342Z,98006.88
2023-03-11T08:31:29.790Z,98002.13
2023-03-11T08:34:01.139Z,98006.44
2023-03-11T08:36:29.573Z,97997.63
2023-03-11T08:38:57.584Z,98010.50
2023-03-11T08:41:25.362Z,98028.78
2023-03-11T08:43:53.010Z,98025.34
2023-03-11T08:46:40.889Z,98033.53
2023-03-11T08:49:08.805Z,98025.91
2023-03-11T08:51:36.860Z,98030.75
2023-03-11T08:54:05.085Z,98034.09
2023-03-11T08:56:32.333Z,98044.69
2023-03-11T08:58:59.922Z,98056.31
2023-03-11T09:01:27.406Z,98038.75
2023-03-11T09:03:55.268Z,98043.13
2023-03-11T09:06:22.586Z,98056.16
2023-03-11T09:08:50.255Z,98055.56
2023-03-11T09:11:18.823Z,98063.66
2023-03-11T09:13:46.511Z,98066.25
2023-03-11T09:16:17.177Z,98077.19
2023-03-11T09:18:45.077Z,98073.91
2023-03-11T09:21:13.001Z,98092.72
2023-03-11T09:23:44.023Z,98089.88
2023-03-11T09:26:12.896Z,98098.88
2023-03-11T09:28:42.012Z,98096.16
2023-03-11T09:31:09.868Z,98114.44
2023-03-11T09:33:40.236Z,98127.22
2023-03-11T09:36:12.450Z,98126.53
2023-03-11T09:38:40.292Z,98126.69
2023-03-11T09:41:32.089Z,98137.38
2023-03-11T09:44:05.432Z,98131.03
2023-03-11T09:47:08.855Z,98143.13
2023-03-11T09:49:51.509Z,98144.44
2023-03-11T09:52:29.404Z,98152.72
2023-03-11T09:54:59.812Z,98160.56
2023-03-11T09:57:33.219Z,98157.78
2023-03-11T10:00:04.188Z,98148.66
2023-03-11T10:02:40.720Z,98166.72
2023-03-11T10:05:25.792Z,98166.44
2023-03-11T10:08:23.344Z,98178.72
2023-03-11T10:11:12.004Z,98191.59
2023-03-11T10:14:05.560Z,98192.84
2023-03-11T10:16:45.452Z,98192.31
2023-03-11T10:19:44.667Z,98190.44
2023-03-11T10:22:41.860Z,98212.41
2023-03-11T10:25:18.580Z,98204.09
2023-03-11T10:27:51.522Z,98208.19
2023-03-11T10:30:36.410Z,98206.34
2023-03-11T10:33:36.011Z,98217.78
2023-03-11T10:36:08.937Z,98208.31
2023-03-11T10:38:42.626Z,98204.63
2023-03-11T10:41:38.408Z,98216.28
2023-03-11T10:44:07.686Z,98232.50
2023-03-11T10:46:35.085Z,98217.97
2023-03-11T10:49:02.600Z,98240.19
2023-03-11T10:51:35.508Z,98236.44
2023-03-11T10:54:04.500Z,98236.16
2023-03-11T10:56:34.489Z,98233.34
2023-03-11T10:59:04.396Z,98248.75
2023-03-11T11:01:32.007Z,98253.66
2023-03-11T11:04:01.813Z,98263.06
2023-03-11T11:06:35.257Z,98267.00
2023-03-11T11:09:16.442Z,98271.78
2023-03-11T11:12:01.533Z,98270.31
2023-03-11T11:14:43.223Z,98263.13
2023-03-11T11:17:17.891Z,98277.69
2023-03-11T11:19:48.128Z,98279.00
2023-03-11T11:22:21.074Z,98287.97
2023-03-11T11:24:54.112Z,98287.69
2023-03-11T11:27:22.957Z,98280.56
2023-03-11T11:30:15.304Z,98289.00
2023-03-11T11:32:42.994Z,98296.50
2023-03-11T11:35:17.113Z,98295.63
2023-03-11T11:37:51.591Z,98297.50
2023-03-11T11:40:29.978Z,98314.75
2023-03-11T11:43:18.206Z,98321.47
2023-03-11T11:46:02.227Z,98310.59
2023-03-11T11:48:37.421Z,98331.78
2023-03-11T11:51:15.412Z,98314.13
2023-03-11T11:53:52.694Z,98317.31
2023-03-11T11:56:24.869Z,98337.59
2023-03-11T11:58:54.756Z,98322.47
2023-03-11T12:01:30.739Z,98333.16
2023-03-11T12:04:12.556Z,98332.56
2023-03-11T12:06:47.098Z,98340.94
2023-03-11T12:09:34.877Z,98352.34
2023-03-11T12:12:13.425Z,98349.91
2023-03-11T12:14:53.058Z,98349.06
2023-03-11T12:17:23.668Z,98350.50
2023-03-11T12:20:49.839Z,98367.94
2023-03-11T12:23:18.197Z,98369.66
2023-03-11T12:26:14.866Z,98389.16
2023-03-11T12:29:07.014Z,98378.81
2023-03-11T12:31:40.833Z,98388.84
2023-03-11T12:34:13.157Z,98404.81
2023-03-11T12:36:44.006Z,98398.44
2023-03-11T12:39:28.891Z,98401.69
2023-03-11T12:42:11.106Z,98414.34
2023-03-11T12:44:39.909Z,98390.25
2023-03-11T12:47:19.016Z,98419.91
2023-03-11T12:49:50.048Z,98418.38
2023-03-11T12:52:18.776Z,98418.00
2023-03-11T12:55:10.582Z,98410.44
2023-03-11T12:57:51.351Z,98413.00
2023-03-11T13:00:25.913Z,98420.72
2023-03-11T13:03:17.874Z,98424.59
2023-03-11T13:05:51.397Z,98427.66
2023-03-11T13:08:33.800Z,98424.59
2023-03-11T13:11:01.542Z,98433.66
2023-03-11T13:13:35.365Z,98444.84
2023-03-11T13:16:23.202Z,98451.78
2023-03-11T13:18:51.862Z,98456.88
2023-03-11T13:21:28.449Z,98452.28
2023-03-11T13:24:25.945Z,98460.56
2023-03-11T13:27:07.891Z,98469.97
2023-03-11T13:30:08.101Z,98474.41
2023-03-11T13:32:57.766Z,98465.84
2023-03-11T13:35:27.906Z,98479.22
2023-03-11T13:38:17.046Z,98479.88
2023-03-11T13:40:46.207Z,98489.06
2023-03-11T13:43:16.743Z,98506.13
2023-03-11T13:45:51.242Z,98492.66
2023-03-11T13:48:21.199Z,98499.75
2023-03-11T13:50:53.976Z,98494.94
2023-03-11T13:53:29.536Z,98495.09
2023-03-11T13:55:56.863Z,98512.09
2023-03-11T13:58:28.805Z,98520.28
2023-03-11T14:00:59.103Z,98530.66
2023-03-11T14:03:33.206Z,98530.97
2023-03-11T14:06:08.855Z,98533.38
2023-03-11T14:08:37.827Z,98532.66
2023-03-11T14:11:11.175Z,98547.97
2023-03-11T14:13:41.447Z,98550.84
2023-03-11T14:16:22.694Z,98559.78
2023-03-11T14:19:04.013Z,98561.41
2023-03-11T14:21:34.044Z,98554.97
2023-03-11T14:24:03.798Z,98570.00
2023-03-11T14:26:35.108Z,98569.09
2023-03-11T14:29:10.812Z,98576.56
2023-03-11T14:31:41.240Z,98568.44
2023-03-11T14:34:20.974Z,98579.31
2023-03-11T14:36:57.076Z,98586.34
2023-03-11T14:39:39.015Z,98572.34
2023-03-11T14:42:37.638Z,98585.91
2023-03-11T14:45:11.404Z,98587.44
2023-03-11T14:47:43.638Z,98593.84
2023-03-11T14:50:19.567Z,98590.41
2023-03-11T14:52:57.643Z,98594.19
2023-03-11T14:55:31.336Z,98598.63
2023-03-11T14:58:10.192Z,98604.44
2023-03-11T15:00:43.160Z,98603.94
2023-03-11T15:03:25.488Z,98600.81
2023-03-11T15:06:00.252Z,98606.28
2023-03-11T15:08:31.161Z,98609.66
2023-03-11T15:11:06.717Z,98631.56
2023-03-11T15:13:34.998Z,98628.56
2023-03-11T15:16:06.666Z,98622.44
2023-03-11T15:18:39.334Z,98621.59
2023-03-11T15:21:19.241Z,98631.28
2023-03-11T15:23:52.376Z,98641.38
2023-03-11T15:26:31.291Z,98655.53
2023-03-11T15:29:01.581Z,98638.47
2023-03-11T15:31:37.804Z,98648.19
2023-03-11T15:34:28.399Z,98646.69
2023-03-11T15:37:01.903Z,98655.09
2023-03-11T15:39:32.317Z,98653.75
2023-03-11T15:42:02.176Z,98664.41
2023-03-11T15:44:41.517Z,98660.91
2023-03-11T15:47:21.111Z,98656.91
2023-03-11T15:49:49.458Z,98669.16
2023-03-11T15:52:19.400Z,98673.91
2023-03-11T15:54:55.015Z,98688.16
2023-03-11T15:57:28.413Z,98682.94
2023-03-11T15:59:58.794Z,98676.69
2023-03-11T16:02:29.117Z,98678.75
2023-03-11T16:04:57.939Z,98686.28
2023-03-11T16:07:38.704Z,98677.69
2023-03-11T16:10:08.456Z,98695.75
2023-03-11T16:12:36.154Z,98696.34
2023-03-11T16:15:04.394Z,98691.38
2023-03-11T16:17:48.369Z,98690.75
2023-03-11T16:20:18.394Z,98711.56
2023-03-11T16:22:48.061Z,98713.91
2023-03-11T16:25:26.186Z,98707.94
2023-03-11T16:27:55.429Z,98721.06
2023-03-11T16:30:24.191Z,98728.03
2023-03-11T16:32:52.201Z,98730.56
2023-03-11T16:35:19.955Z,98738.28
2023-03-11T16:37:48.331Z,98740.69
2023-03-11T16:40:18.767Z,98745.91
2023-03-11T16:42:46.997Z,98756.66
2023-03-11T16:45:17.243Z,98754.25
2023-03-11T16:47:44.840Z,98756.44
2023-03-11T16:50:12.444Z,98749.22
2023-03-11T16:52:40.111Z,98764.50
2023-03-11T16:55:07.868Z,98763.06
2023-03-11T16:57:36.452Z,98757.69
2023-03-11T17:00:06.617Z,98768.97
2023-03-11T17:02:34.323Z,98771.84
2023-03-11T17:05:01.827Z,98772.59
2023-03-11T17:07:29.455Z,98782.94
2023-03-11T17:09:58.215Z,98771.47
2023-03-11T17:12:26.181Z,98773.66
2023-03-11T17:14:54.415Z,98770.16
2023-03-11T17:17:22.765Z,98782.91
2023-03-11T17:19:50.225Z,98791.44
2023-03-11T17:22:17.857Z,98785.91
2023-03-11T17:24:45.142Z,98798.44
2023-03-11T17:27:12.844Z,98795.66
2023-03-11T17:29:40.240Z,98786.75
2023-03-11T17:32:08.072Z,98794.59
2023-03-11T17:34:35.342Z,98808.69
2023-03-11T17:37:03.066Z,98796.00
2023-03-11T17:39:30.313Z,98819.97
2023-03-11T17:41:58.027Z,98811.78
2023-03-11T17:44:25.286Z,98804.69
2023-03-11T17:46:52.871Z,98813.09
2023-03-11T17:49:20.200Z,98822.56
2023-03-11T17:51:47.963Z,98812.72
2023-03-11T17:54:15.428Z,98826.44
2023-03-11T17:56:43.046Z,98801.84
2023-03-11T17:59:10.286Z,98824.84
2023-03-11T18:01:39.542Z,98840.09
2023-03-11T18:04:07.349Z,98826.91
2023-03-11T18:06:34.910Z,98836.94
2023-03-11T18:09:02.278Z,98841.53
2023-03-11T18:11:30.147Z,98842.53
2023-03-11T18:13:58.377Z,98833.13
2023-03-11T18:16:28.992Z,98828.34
2023-03-11T18:18:57.106Z,98838.94
2023-03-11T18:21:27.363Z,98831.31
2023-03-11T18:23:59.108Z,98830.69
2023-03-11T18:26:27.673Z,98842.75
2023-03-11T18:28:59.302Z,98849.38
2023-03-11T18:31:27.650Z,98836.72
2023-03-11T18:34:01.241Z,98834.06
2023-03-11T18:36:32.684Z,98845.88
2023-03-11T18:39:01.736Z,98844.13
2023-03-11T18:41:32.287Z,98835.34
2023-03-11T18:44:00.391Z,98847.75
2023-03-11T18:46:31.834Z,98847.44
2023-03-11T18:49:01.076Z,98841.25
2023-03-11T18:51:31.796Z,98845.88
2023-03-11T18:54:00.002Z,98852.97
2023-03-11T18:56:31.062Z,98848.78
2023-03-11T18:58:59.360Z,98849.28
2023-03-11T19:01:27.674Z,98844.63
2023-03-11T19:03:57.585Z,98839.72
2023-03-11T19:06:27.202Z,98852.53
2023-03-11T19:08:55.113Z,98842.38
2023-03-11T19:11:24.217Z,98858.72
2023-03-11T19:13:51.911Z,98862.81
2023-03-11T19:16:23.700Z,98861.19
2023-03-11T19:18:51.587Z,98865.69
2023-03-11T19:21:19.290Z,98856.25
2023-03-11T19:23:46.833Z,98865.53
2023-03-11T19:26:15.820Z,98873.34
2023-03-11T19:28:43.346Z,98865.53
2023-03-11T19:31:10.989Z,98868.34
2023-03-11T19:33:38.336Z,98885.19
2023-03-11T19:36:06.931Z,98880.31
2023-03-11T19:38:35.371Z,98874.53
2023-03-11T19:41:04.746Z,98874.53
2023-03-11T19:43:32.695Z,98881.56
2023-03-11T19:46:00.323Z,98887.31
2023-03-11T19:48:27.700Z,98866.59
2023-03-11T19:50:55.252Z,98870.00
2023-03-11T19:53:23.025Z,98877.72
2023-03-11T19:55:53.092Z,98878.84
2023-03-11T19:58:22.398Z,98873.69
2023-03-11T20:00:50.662Z,98880.88
2023-03-11T20:03:18.792Z,98892.22
2023-03-11T20:05:48.755Z,98879.38
2023-03-11T20:08:18.609Z,98885.69
2023-03-11T20:10:48.435Z,98882.44
2023-03-11T20:13:17.677Z,98877.38
2023-03-11T20:15:45.273Z,98883.03
2023-03-11T20:18:12.630Z,98892.13
2023-03-11T20:20:43.244Z,98887.25
2023-03-11T20:23:11.600Z,98874.31
2023-03-11T20:25:40.517Z,98881.34
2023-03-11T20:28:08.948Z,98869.34
2023-03-11T20:30:38.062Z,98861.28
2023-03-11T20:33:06.175Z,98883.03
2023-03-11T20:35:34.462Z,98888.97
2023-03-11T20:38:03.079Z,98881.22
2023-03-11T20:40:31.132Z,98873.09
2023-03-11T20:42:58.425Z,98878.22
2023-03-11T20:45:26.116Z,98871.53
2023-03-11T20:47:54.145Z,98879.41
2023-03-11T20:50:23.059Z,98866.91
2023-03-11T20:52:51.092Z,98872.31
2023-03-11T20:55:18.812Z,98871.09
2023-03-11T20:57:46.762Z,98864.47
2023-03-11T21:00:15.230Z,98868.66
2023-03-11T21:02:43.938Z,98861.53
2023-03-11T21:05:13.335Z,98852.97
2023-03-11T21:07:40.998Z,98848.66
2023-03-11T21:10:11.805Z,98860.50
2023-03-11T21:12:39.196Z,98835.28
2023-03-11T21:15:08.577Z,98835.41
2023-03-11T21:17:36.427Z,98850.56
2023-03-11T21:20:06.449Z,98838.34
2023-03-11T21:22:34.284Z,98835.38
2023-03-11T21:25:01.952Z,98823.47
2023-03-11T21:27:29.470Z,98827.88
2023-03-11T21:29:58.010Z,98817.56
2023-03-11T21:32:27.147Z,98811.31
2023-03-11T21:34:57.437Z,98831.75
2023-03-11T21:37:25.834Z,98822.16
2023-03-11T21:39:54.020Z,98833.47
2023-03-11T21:42:21.634Z,98830.56
2023-03-11T21:44:51.395Z,98830.94
2023-03-11T21:47:20.130Z,98819.59
2023-03-11T21:49:47.710Z,98821.03
2023-03-11T21:52:15.079Z,98818.28
2023-03-11T21:54:42.757Z,98833.22
2023-03-11T21:57:11.515Z,98830.56
2023-03-11T21:59:39.106Z,98822.13
2023-03-11T22:02:06.779Z,98817.44
2023-03-11T22:04:34.501Z,98811.06
2023-03-11T22:07:01.929Z,98815.53
2023-03-11T22:09:29.637Z,98807.97
2023-03-11T22:11:56.977Z,98804.81
2023-03-11T22:14:25.076Z,98819.13
2023-03-11T22:16:52.906Z,98807.47
2023-03-11T22:19:20.848Z,98795.44
2023-03-11T22:21:49.090Z,98791.59
2023-03-11T22:24:16.762Z,98797.44
2023-03-11T22:26:44.011Z,98795.25
2023-03-11T22:29:13.529Z,98777.00
2023-03-11T22:31:41.295Z,98784.22
2023-03-11T22:34:08.930Z,98774.41
2023-03-11T22:36:36.181Z,98775.78
2023-03-11T22:39:04.988Z,98763.38
2023-03-11T22:41:32.582Z,98759.81
2023-03-11T22:44:00.191Z,98739.09
2023-03-11T22:46:27.727Z,98731.59
2023-03-11T22:48:55.972Z,98747.84
2023-03-11T22:51:26.011Z,98744.00
2023-03-11T22:53:53.545Z,98737.50
2023-03-11T22:56:20.906Z,98732.81
2023-03-11T22:58:48.506Z,98729.22
2023-03-11T23:01:16.619Z,98730.66
2023-03-11T23:03:44.750Z,98738.38
2023-03-11T23:06:16.079Z,98730.34
2023-03-11T23:08:44.128Z,98733.59
2023-03-11T23:11:14.644Z,98717.97
2023-03-11T23:13:43.364Z,98722.78
2023-03-11T23:16:19.565Z,98711.97
2023-03-11T23:18:50.002Z,98728.56
2023-03-11T23:21:30.016Z,98721.81
2023-03-11T23:24:00.200Z,98712.34
2023-03-11T23:26:28.903Z,98716.06
2023-03-11T23:28:56.725Z,98735.06
2023-03-11T23:31:25.681Z,98730.00
2023-03-11T23:33:53.628Z,98730.47
2023-03-11T23:36:23.119Z,98720.38
2023-03-11T23:38:51.050Z,98730.09
2023-03-11T23:41:21.373Z,98750.94
2023-03-11T23:43:48.878Z,98746.47
2023-03-11T23:46:16.309Z,98737.22
2023-03-11T23:48:43.937Z,98741.31
2023-03-11T23:51:11.256Z,98742.63
2023-03-11T23:53:39.705Z,98740.72
2023-03-11T23:56:16.985Z,98755.16
2023-03-11T23:58:45.393Z,98755.59
